sensor_id;sensor_type;location;lat;lon;timestamp;temperature;humidity
3678;DHT22;1855;50.934;6.958;2022-12-16T00:00:21;-5.40;99.80
3678;DHT22;1855;50.934;6.958;2022-12-16T00:02:48;-5.40;99.70
3678;DHT22;1855;50.934;6.958;2022-12-16T00:05:15;-5.40;99.60
3678;DHT22;1855;50.934;6.958;2022-12-16T00:07:44;-5.40;99.60
3678;DHT22;1855;50.934;6.958;2022-12-16T00:10:11;-5.40;99.50
3678;DHT22;1855;50.934;6.958;2022-12-16T00:12:39;-5.40;99.30
3678;DHT22;1855;50.934;6.958;2022-12-16T00:15:07;-5.50;99.20
3678;DHT22;1855;50.934;6.958;2022-12-16T00:17:33;-5.50;99.20
3678;DHT22;1855;50.934;6.958;2022-12-16T00:20:00;-5.50;99.20
3678;DHT22;1855;50.934;6.958;2022-12-16T00:22:28;-5.50;99.20
3678;DHT22;1855;50.934;6.958;2022-12-16T00:24:55;-5.50;99.20
3678;DHT22;1855;50.934;6.958;2022-12-16T00:27:21;-5.50;99.40
3678;DHT22;1855;50.934;6.958;2022-12-16T00:29:50;-5.50;99.60
3678;DHT22;1855;50.934;6.958;2022-12-16T00:32:16;-5.60;99.60
3678;DHT22;1855;50.934;6.958;2022-12-16T00:34:43;-5.60;99.70
3678;DHT22;1855;50.934;6.958;2022-12-16T00:37:10;-5.60;99.60
3678;DHT22;1855;50.934;6.958;2022-12-16T00:39:37;-5.60;99.80
3678;DHT22;1855;50.934;6.958;2022-12-16T00:42:04;-5.60;99.90
3678;DHT22;1855;50.934;6.958;2022-12-16T00:44:31;-5.70;99.90
3678;DHT22;1855;50.934;6.958;2022-12-16T00:46:59;-5.70;99.80
3678;DHT22;1855;50.934;6.958;2022-12-16T00:49:26;-5.70;99.90
3678;DHT22;1855;50.934;6.958;2022-12-16T00:51:52;-5.70;99.90
3678;DHT22;1855;50.934;6.958;2022-12-16T00:54:19;-5.60;99.90
3678;DHT22;1855;50.934;6.958;2022-12-16T00:56:46;-5.60;99.90
3678;DHT22;1855;50.934;6.958;2022-12-16T00:59:13;-5.60;99.90
3678;DHT22;1855;50.934;6.958;2022-12-16T01:01:40;-5.60;99.90
3678;DHT22;1855;50.934;6.958;2022-12-16T01:04:08;-5.50;99.90
3678;DHT22;1855;50.934;6.958;2022-12-16T01:06:34;-5.50;99.90
3678;DHT22;1855;50.934;6.958;2022-12-16T01:09:02;-5.50;99.90
3678;DHT22;1855;50.934;6.958;2022-12-16T01:11:28;-5.50;99.90
3678;DHT22;1855;50.934;6.958;2022-12-16T01:13:55;-5.50;99.90
3678;DHT22;1855;50.934;6.958;2022-12-16T01:16:22;-5.60;99.90
3678;DHT22;1855;50.934;6.958;2022-12-16T01:18:49;-5.50;99.90
3678;DHT22;1855;50.934;6.958;2022-12-16T01:21:17;-5.50;99.90
3678;DHT22;1855;50.934;6.958;2022-12-16T01:23:43;-5.50;99.90
3678;DHT22;1855;50.934;6.958;2022-12-16T01:26:15;-5.40;99.90
3678;DHT22;1855;50.934;6.958;2022-12-16T01:28:43;-5.50;99.90
3678;DHT22;1855;50.934;6.958;2022-12-16T01:31:10;-5.40;99.90
3678;DHT22;1855;50.934;6.958;2022-12-16T01:33:37;-5.50;99.90
3678;DHT22;1855;50.934;6.958;2022-12-16T01:36:06;-5.50;99.90
3678;DHT22;1855;50.934;6.958;2022-12-16T01:38:35;-5.50;99.90
3678;DHT22;1855;50.934;6.958;2022-12-16T01:41:02;-5.50;99.90
3678;DHT22;1855;50.934;6.958;2022-12-16T01:43:32;-5.50;99.90
3678;DHT22;1855;50.934;6.958;2022-12-16T01:46:02;-5.60;99.90
3678;DHT22;1855;50.934;6.958;2022-12-16T01:48:37;-5.60;99.90
3678;DHT22;1855;50.934;6.958;2022-12-16T01:51:08;-5.60;99.90
3678;DHT22;1855;50.934;6.958;2022-12-16T01:53:39;-5.60;99.90
3678;DHT22;1855;50.934;6.958;2022-12-16T01:56:09;-5.60;99.90
3678;DHT22;1855;50.934;6.958;2022-12-16T01:58:39;-5.70;99.90
3678;DHT22;1855;50.934;6.958;2022-12-16T02:01:06;-5.70;99.90
3678;DHT22;1855;50.934;6.958;2022-12-16T02:03:35;-5.70;99.90
3678;DHT22;1855;50.934;6.958;2022-12-16T02:06:03;-5.70;99.90
3678;DHT22;1855;50.934;6.958;2022-12-16T02:08:31;-5.80;99.90
3678;DHT22;1855;50.934;6.958;2022-12-16T02:11:27;-5.80;99.90
3678;DHT22;1855;50.934;6.958;2022-12-16T02:14:16;-5.80;99.90
3678;DHT22;1855;50.934;6.958;2022-12-16T02:16:51;-5.80;99.90
3678;DHT22;1855;50.934;6.958;2022-12-16T02:19:45;-5.80;99.90
3678;DHT22;1855;50.934;6.958;2022-12-16T02:22:22;-5.80;99.90
3678;DHT22;1855;50.934;6.958;2022-12-16T02:28:02;-5.80;99.90
3678;DHT22;1855;50.934;6.958;2022-12-16T02:30:46;-5.90;99.90
3678;DHT22;1855;50.934;6.958;2022-12-16T02:33:26;-5.90;99.90
3678;DHT22;1855;50.934;6.958;2022-12-16T02:36:04;-5.90;99.90
3678;DHT22;1855;50.934;6.958;2022-12-16T02:38:38;-5.90;99.90
3678;DHT22;1855;50.934;6.958;2022-12-16T02:41:24;-5.90;99.90
3678;DHT22;1855;50.934;6.958;2022-12-16T02:43:54;-5.90;99.90
3678;DHT22;1855;50.934;6.958;2022-12-16T02:46:26;-5.90;99.90
3678;DHT22;1855;50.934;6.958;2022-12-16T02:48:55;-5.90;99.90
3678;DHT22;1855;50.934;6.958;2022-12-16T02:51:23;-5.80;99.90
3678;DHT22;1855;50.934;6.958;2022-12-16T02:53:52;-5.90;99.90
3678;DHT22;1855;50.934;6.958;2022-12-16T02:56:32;-5.80;99.90
3678;DHT22;1855;50.934;6.958;2022-12-16T02:59:10;-5.80;99.90
3678;DHT22;1855;50.934;6.958;2022-12-16T03:01:46;-5.90;99.90
3678;DHT22;1855;50.934;6.958;2022-12-16T03:04:18;-5.90;99.90
3678;DHT22;1855;50.934;6.958;2022-12-16T03:06:48;-5.90;99.90
3678;DHT22;1855;50.934;6.958;2022-12-16T03:09:18;-5.80;99.90
3678;DHT22;1855;50.934;6.958;2022-12-16T03:11:47;-5.80;99.90
3678;DHT22;1855;50.934;6.958;2022-12-16T03:14:16;-5.80;99.90
3678;DHT22;1855;50.934;6.958;2022-12-16T03:16:46;-5.90;99.90
3678;DHT22;1855;50.934;6.958;2022-12-16T03:19:13;-5.90;99.90
3678;DHT22;1855;50.934;6.958;2022-12-16T03:21:44;-5.80;99.90
3678;DHT22;1855;50.934;6.958;2022-12-16T03:24:12;-5.80;99.90
3678;DHT22;1855;50.934;6.958;2022-12-16T03:26:43;-5.80;99.90
3678;DHT22;1855;50.934;6.958;2022-12-16T03:29:14;-5.80;99.90
3678;DHT22;1855;50.934;6.958;2022-12-16T03:31:47;-5.80;99.90
3678;DHT22;1855;50.934;6.958;2022-12-16T03:34:23;-5.80;99.90
3678;DHT22;1855;50.934;6.958;2022-12-16T03:36:53;-5.80;99.90
3678;DHT22;1855;50.934;6.958;2022-12-16T03:39:24;-5.80;99.90
3678;DHT22;1855;50.934;6.958;2022-12-16T03:41:52;-5.80;99.90
3678;DHT22;1855;50.934;6.958;2022-12-16T03:44:21;-5.70;99.90
3678;DHT22;1855;50.934;6.958;2022-12-16T03:46:49;-5.70;99.90
3678;DHT22;1855;50.934;6.958;2022-12-16T03:49:16;-5.70;99.90
3678;DHT22;1855;50.934;6.958;2022-12-16T03:51:43;-5.70;99.90
3678;DHT22;1855;50.934;6.958;2022-12-16T03:54:09;-5.70;99.90
3678;DHT22;1855;50.934;6.958;2022-12-16T03:56:36;-5.70;99.90
3678;DHT22;1855;50.934;6.958;2022-12-16T03:59:03;-5.70;99.90
3678;DHT22;1855;50.934;6.958;2022-12-16T04:01:30;-5.70;99.90
3678;DHT22;1855;50.934;6.958;2022-12-16T04:03:58;-5.60;99.90
3678;DHT22;1855;50.934;6.958;2022-12-16T04:06:24;-5.60;99.90
3678;DHT22;1855;50.934;6.958;2022-12-16T04:08:51;-5.60;99.90
3678;DHT22;1855;50.934;6.958;2022-12-16T04:11:18;-5.60;99.90
3678;DHT22;1855;50.934;6.958;2022-12-16T04:14:02;-5.60;99.90
3678;DHT22;1855;50.934;6.958;2022-12-16T04:16:46;-5.60;99.90
3678;DHT22;1855;50.934;6.958;2022-12-16T04:19:33;-5.70;99.90
3678;DHT22;1855;50.934;6.958;2022-12-16T04:22:21;-5.60;99.90
3678;DHT22;1855;50.934;6.958;2022-12-16T04:25:10;-5.60;99.90
3678;DHT22;1855;50.934;6.958;2022-12-16T04:27:39;-5.60;99.90
3678;DHT22;1855;50.934;6.958;2022-12-16T04:30:12;-5.60;99.90
3678;DHT22;1855;50.934;6.958;2022-12-16T04:32:45;-5.60;99.90
3678;DHT22;1855;50.934;6.958;2022-12-16T04:35:31;-5.60;99.90
3678;DHT22;1855;50.934;6.958;2022-12-16T04:38:16;-5.60;99.90
3678;DHT22;1855;50.934;6.958;2022-12-16T04:41:00;-5.50;99.90
3678;DHT22;1855;50.934;6.958;2022-12-16T04:43:44;-5.50;99.90
3678;DHT22;1855;50.934;6.958;2022-12-16T04:46:28;-5.40;99.90
3678;DHT22;1855;50.934;6.958;2022-12-16T04:49:12;-5.40;99.90
3678;DHT22;1855;50.934;6.958;2022-12-16T04:51:58;-5.50;99.90
3678;DHT22;1855;50.934;6.958;2022-12-16T04:54:42;-5.50;99.90
3678;DHT22;1855;50.934;6.958;2022-12-16T04:57:25;-5.50;99.90
3678;DHT22;1855;50.934;6.958;2022-12-16T05:00:11;-5.50;99.90
3678;DHT22;1855;50.934;6.958;2022-12-16T05:02:55;-5.50;99.90
3678;DHT22;1855;50.934;6.958;2022-12-16T05:05:40;-5.60;99.90
3678;DHT22;1855;50.934;6.958;2022-12-16T05:08:26;-5.60;99.90
3678;DHT22;1855;50.934;6.958;2022-12-16T05:11:10;-5.60;99.90
3678;DHT22;1855;50.934;6.958;2022-12-16T05:13:54;-5.50;99.90
3678;DHT22;1855;50.934;6.958;2022-12-16T05:16:38;-5.50;99.90
3678;DHT22;1855;50.934;6.958;2022-12-16T05:19:22;-5.50;99.90
3678;DHT22;1855;50.934;6.958;2022-12-16T05:22:06;-5.50;99.90
3678;DHT22;1855;50.934;6.958;2022-12-16T05:24:52;-5.50;99.90
3678;DHT22;1855;50.934;6.958;2022-12-16T05:27:36;-5.50;99.90
3678;DHT22;1855;50.934;6.958;2022-12-16T05:30:20;-5.50;99.90
3678;DHT22;1855;50.934;6.958;2022-12-16T05:33:04;-5.40;99.90
3678;DHT22;1855;50.934;6.958;2022-12-16T05:35:48;-5.40;99.90
3678;DHT22;1855;50.934;6.958;2022-12-16T05:38:32;-5.40;99.90
3678;DHT22;1855;50.934;6.958;2022-12-16T05:41:18;-5.40;99.90
3678;DHT22;1855;50.934;6.958;2022-12-16T05:44:02;-5.40;99.90
3678;DHT22;1855;50.934;6.958;2022-12-16T05:46:46;-5.40;99.90
3678;DHT22;1855;50.934;6.958;2022-12-16T05:49:31;-5.40;99.90
3678;DHT22;1855;50.934;6.958;2022-12-16T05:52:15;-5.40;99.90
3678;DHT22;1855;50.934;6.958;2022-12-16T05:54:59;-5.40;99.90
3678;DHT22;1855;50.934;6.958;2022-12-16T05:57:48;-5.40;99.90
3678;DHT22;1855;50.934;6.958;2022-12-16T06:00:32;-5.40;99.90
3678;DHT22;1855;50.934;6.958;2022-12-16T06:03:17;-5.50;99.90
3678;DHT22;1855;50.934;6.958;2022-12-16T06:06:01;-5.50;99.90
3678;DHT22;1855;50.934;6.958;2022-12-16T06:08:56;-5.40;99.90
3678;DHT22;1855;50.934;6.958;2022-12-16T06:11:40;-5.40;99.90
3678;DHT22;1855;50.934;6.958;2022-12-16T06:14:26;-5.40;99.90
3678;DHT22;1855;50.934;6.958;2022-12-16T06:17:10;-5.50;99.90
3678;DHT22;1855;50.934;6.958;2022-12-16T06:19:54;-5.50;99.90
3678;DHT22;1855;50.934;6.958;2022-12-16T06:22:39;-5.60;99.90
3678;DHT22;1855;50.934;6.958;2022-12-16T06:25:23;-5.60;99.90
3678;DHT22;1855;50.934;6.958;2022-12-16T06:28:07;-5.60;99.90
3678;DHT22;1855;50.934;6.958;2022-12-16T06:30:52;-5.70;99.90
3678;DHT22;1855;50.934;6.958;2022-12-16T06:33:36;-5.70;99.90
3678;DHT22;1855;50.934;6.958;2022-12-16T06:36:21;-5.60;99.90
3678;DHT22;1855;50.934;6.958;2022-12-16T06:39:05;-5.60;99.90
3678;DHT22;1855;50.934;6.958;2022-12-16T06:41:50;-5.60;99.90
3678;DHT22;1855;50.934;6.958;2022-12-16T06:44:34;-5.70;99.90
3678;DHT22;1855;50.934;6.958;2022-12-16T06:47:19;-5.70;99.90
3678;DHT22;1855;50.934;6.958;2022-12-16T06:50:04;-5.70;99.90
3678;DHT22;1855;50.934;6.958;2022-12-16T06:52:48;-5.80;99.90
3678;DHT22;1855;50.934;6.958;2022-12-16T06:55:32;-5.80;99.90
3678;DHT22;1855;50.934;6.958;2022-12-16T06:58:17;-5.80;99.90
3678;DHT22;1855;50.934;6.958;2022-12-16T07:01:01;-5.70;99.90
3678;DHT22;1855;50.934;6.958;2022-12-16T07:03:46;-5.70;99.90
3678;DHT22;1855;50.934;6.958;2022-12-16T07:06:31;-5.70;99.90
3678;DHT22;1855;50.934;6.958;2022-12-16T07:09:15;-5.70;99.90
3678;DHT22;1855;50.934;6.958;2022-12-16T07:11:59;-5.70;99.90
3678;DHT22;1855;50.934;6.958;2022-12-16T07:14:43;-5.80;99.90
3678;DHT22;1855;50.934;6.958;2022-12-16T07:17:27;-5.80;99.90
3678;DHT22;1855;50.934;6.958;2022-12-16T07:20:13;-5.90;99.90
3678;DHT22;1855;50.934;6.958;2022-12-16T07:22:57;-6.00;99.80
3678;DHT22;1855;50.934;6.958;2022-12-16T07:25:41;-6.00;99.80
3678;DHT22;1855;50.934;6.958;2022-12-16T07:28:26;-6.00;99.70
3678;DHT22;1855;50.934;6.958;2022-12-16T07:31:10;-6.10;99.70
3678;DHT22;1855;50.934;6.958;2022-12-16T07:33:54;-6.10;99.70
3678;DHT22;1855;50.934;6.958;2022-12-16T07:36:40;-6.10;99.70
3678;DHT22;1855;50.934;6.958;2022-12-16T07:39:24;-6.00;99.60
3678;DHT22;1855;50.934;6.958;2022-12-16T07:42:08;-6.00;99.50
3678;DHT22;1855;50.934;6.958;2022-12-16T07:44:52;-6.00;99.50
3678;DHT22;1855;50.934;6.958;2022-12-16T07:47:36;-5.90;99.40
3678;DHT22;1855;50.934;6.958;2022-12-16T07:50:20;-5.90;99.20
3678;DHT22;1855;50.934;6.958;2022-12-16T07:53:07;-5.90;99.30
3678;DHT22;1855;50.934;6.958;2022-12-16T07:55:48;-6.00;99.30
3678;DHT22;1855;50.934;6.958;2022-12-16T07:58:32;-6.00;99.30
3678;DHT22;1855;50.934;6.958;2022-12-16T08:01:16;-6.00;99.50
3678;DHT22;1855;50.934;6.958;2022-12-16T08:04:00;-6.00;99.60
3678;DHT22;1855;50.934;6.958;2022-12-16T08:06:45;-6.00;99.60
3678;DHT22;1855;50.934;6.958;2022-12-16T08:09:30;-6.00;99.70
3678;DHT22;1855;50.934;6.958;2022-12-16T08:12:15;-6.00;99.70
3678;DHT22;1855;50.934;6.958;2022-12-16T08:15:01;-5.90;99.60
3678;DHT22;1855;50.934;6.958;2022-12-16T08:17:48;-6.00;99.40
3678;DHT22;1855;50.934;6.958;2022-12-16T08:20:32;-6.00;99.40
3678;DHT22;1855;50.934;6.958;2022-12-16T08:23:16;-6.00;99.40
3678;DHT22;1855;50.934;6.958;2022-12-16T08:26:02;-6.00;99.40
3678;DHT22;1855;50.934;6.958;2022-12-16T08:28:48;-6.00;99.60
3678;DHT22;1855;50.934;6.958;2022-12-16T08:31:32;-6.00;99.70
3678;DHT22;1855;50.934;6.958;2022-12-16T08:34:17;-6.00;99.90
3678;DHT22;1855;50.934;6.958;2022-12-16T08:37:02;-6.00;99.90
3678;DHT22;1855;50.934;6.958;2022-12-16T08:39:46;-5.90;99.90
3678;DHT22;1855;50.934;6.958;2022-12-16T08:42:31;-5.90;99.90
3678;DHT22;1855;50.934;6.958;2022-12-16T08:45:18;-5.80;99.90
3678;DHT22;1855;50.934;6.958;2022-12-16T08:48:03;-5.80;99.90
3678;DHT22;1855;50.934;6.958;2022-12-16T08:50:48;-5.90;99.90
3678;DHT22;1855;50.934;6.958;2022-12-16T08:53:32;-5.80;99.90
3678;DHT22;1855;50.934;6.958;2022-12-16T08:56:16;-5.80;99.90
3678;DHT22;1855;50.934;6.958;2022-12-16T08:59:02;-5.80;99.90
3678;DHT22;1855;50.934;6.958;2022-12-16T09:01:46;-5.70;99.90
3678;DHT22;1855;50.934;6.958;2022-12-16T09:04:30;-5.70;99.90
3678;DHT22;1855;50.934;6.958;2022-12-16T09:07:15;-5.70;99.90
3678;DHT22;1855;50.934;6.958;2022-12-16T09:09:55;-5.60;99.90
3678;DHT22;1855;50.934;6.958;2022-12-16T09:12:40;-5.60;99.90
3678;DHT22;1855;50.934;6.958;2022-12-16T09:15:28;-5.60;99.90
3678;DHT22;1855;50.934;6.958;2022-12-16T09:18:12;-5.60;99.90
3678;DHT22;1855;50.934;6.958;2022-12-16T09:20:57;-5.50;99.90
3678;DHT22;1855;50.934;6.958;2022-12-16T09:23:42;-5.50;99.90
3678;DHT22;1855;50.934;6.958;2022-12-16T09:26:26;-5.30;99.90
3678;DHT22;1855;50.934;6.958;2022-12-16T09:29:25;-5.20;99.90
3678;DHT22;1855;50.934;6.958;2022-12-16T09:32:11;-5.10;99.90
3678;DHT22;1855;50.934;6.958;2022-12-16T09:34:56;-4.80;99.90
3678;DHT22;1855;50.934;6.958;2022-12-16T09:37:44;-4.50;99.90
3678;DHT22;1855;50.934;6.958;2022-12-16T09:40:29;-4.10;99.90
3678;DHT22;1855;50.934;6.958;2022-12-16T09:43:28;-3.70;99.90
3678;DHT22;1855;50.934;6.958;2022-12-16T09:46:21;-3.30;99.90
3678;DHT22;1855;50.934;6.958;2022-12-16T09:49:16;-3.00;99.90
3678;DHT22;1855;50.934;6.958;2022-12-16T09:52:05;-3.00;99.90
3678;DHT22;1855;50.934;6.958;2022-12-16T09:54:54;-2.70;99.90
3678;DHT22;1855;50.934;6.958;2022-12-16T09:57:39;-2.40;99.90
3678;DHT22;1855;50.934;6.958;2022-12-16T10:00:26;-2.10;99.90
3678;DHT22;1855;50.934;6.958;2022-12-16T10:03:15;-1.90;99.70
3678;DHT22;1855;50.934;6.958;2022-12-16T10:06:07;-1.60;99.20
3678;DHT22;1855;50.934;6.958;2022-12-16T10:08:58;-1.30;98.40
3678;DHT22;1855;50.934;6.958;2022-12-16T10:11:50;-1.10;96.70
3678;DHT22;1855;50.934;6.958;2022-12-16T10:14:41;-1.00;95.00
3678;DHT22;1855;50.934;6.958;2022-12-16T10:17:27;-0.90;94.30
3678;DHT22;1855;50.934;6.958;2022-12-16T10:20:16;-0.90;92.90
3678;DHT22;1855;50.934;6.958;2022-12-16T10:23:09;-1.00;92.10
3678;DHT22;1855;50.934;6.958;2022-12-16T10:26:01;-0.80;92.20
3678;DHT22;1855;50.934;6.958;2022-12-16T10:28:48;-0.70;90.70
3678;DHT22;1855;50.934;6.958;2022-12-16T10:31:36;-0.70;89.90
3678;DHT22;1855;50.934;6.958;2022-12-16T10:34:26;-0.70;89.70
3678;DHT22;1855;50.934;6.958;2022-12-16T10:37:13;-0.60;90.00
3678;DHT22;1855;50.934;6.958;2022-12-16T10:40:01;-0.50;88.50
3678;DHT22;1855;50.934;6.958;2022-12-16T10:42:49;-0.60;86.40
3678;DHT22;1855;50.934;6.958;2022-12-16T10:45:36;-0.90;86.10
3678;DHT22;1855;50.934;6.958;2022-12-16T10:48:28;-0.80;86.30
3678;DHT22;1855;50.934;6.958;2022-12-16T10:51:16;-0.80;87.80
3678;DHT22;1855;50.934;6.958;2022-12-16T10:54:23;-0.70;86.90
3678;DHT22;1855;50.934;6.958;2022-12-16T10:57:15;-0.80;85.90
3678;DHT22;1855;50.934;6.958;2022-12-16T11:00:13;-0.80;86.20
3678;DHT22;1855;50.934;6.958;2022-12-16T11:03:17;-0.80;87.00
3678;DHT22;1855;50.934;6.958;2022-12-16T11:06:01;-0.70;86.50
3678;DHT22;1855;50.934;6.958;2022-12-16T11:08:46;-0.70;85.30
3678;DHT22;1855;50.934;6.958;2022-12-16T11:11:31;-0.80;84.60
3678;DHT22;1855;50.934;6.958;2022-12-16T11:14:24;-0.80;85.00
3678;DHT22;1855;50.934;6.958;2022-12-16T11:17:16;-1.00;85.60
3678;DHT22;1855;50.934;6.958;2022-12-16T11:20:14;-1.10;86.80
3678;DHT22;1855;50.934;6.958;2022-12-16T11:23:13;-1.10;87.80
3678;DHT22;1855;50.934;6.958;2022-12-16T11:26:08;-1.20;88.20
3678;DHT22;1855;50.934;6.958;2022-12-16T11:29:09;-1.10;89.00
3678;DHT22;1855;50.934;6.958;2022-12-16T11:32:00;-1.00;88.90
3678;DHT22;1855;50.934;6.958;2022-12-16T11:34:51;-0.90;88.20
3678;DHT22;1855;50.934;6.958;2022-12-16T11:37:37;-0.80;87.80
3678;DHT22;1855;50.934;6.958;2022-12-16T11:40:23;-0.60;87.20
3678;DHT22;1855;50.934;6.958;2022-12-16T11:43:09;-0.40;86.40
3678;DHT22;1855;50.934;6.958;2022-12-16T11:45:56;-0.20;85.60
3678;DHT22;1855;50.934;6.958;2022-12-16T11:48:46;0.00;84.60
3678;DHT22;1855;50.934;6.958;2022-12-16T11:51:34;0.10;84.20
3678;DHT22;1855;50.934;6.958;2022-12-16T11:54:23;0.20;84.60
3678;DHT22;1855;50.934;6.958;2022-12-16T11:57:16;0.30;83.60
3678;DHT22;1855;50.934;6.958;2022-12-16T12:00:04;0.60;83.40
3678;DHT22;1855;50.934;6.958;2022-12-16T12:02:53;1.10;82.50
3678;DHT22;1855;50.934;6.958;2022-12-16T12:05:44;1.30;80.60
3678;DHT22;1855;50.934;6.958;2022-12-16T12:08:37;1.80;79.40
3678;DHT22;1855;50.934;6.958;2022-12-16T12:11:27;2.40;77.20
3678;DHT22;1855;50.934;6.958;2022-12-16T12:14:20;2.20;76.40
3678;DHT22;1855;50.934;6.958;2022-12-16T12:17:19;2.20;76.40
3678;DHT22;1855;50.934;6.958;2022-12-16T12:20:33;2.20;76.40
3678;DHT22;1855;50.934;6.958;2022-12-16T12:23:30;2.40;74.60
3678;DHT22;1855;50.934;6.958;2022-12-16T12:26:20;2.40;75.10
3678;DHT22;1855;50.934;6.958;2022-12-16T12:29:13;2.30;74.30
3678;DHT22;1855;50.934;6.958;2022-12-16T12:32:05;2.30;75.20
3678;DHT22;1855;50.934;6.958;2022-12-16T12:34:58;2.50;74.70
3678;DHT22;1855;50.934;6.958;2022-12-16T12:37:54;2.70;73.30
3678;DHT22;1855;50.934;6.958;2022-12-16T12:40:49;2.70;72.80
3678;DHT22;1855;50.934;6.958;2022-12-16T12:43:43;2.70;72.40
3678;DHT22;1855;50.934;6.958;2022-12-16T12:46:33;2.80;72.60
3678;DHT22;1855;50.934;6.958;2022-12-16T12:59:28;2.90;72.20
3678;DHT22;1855;50.934;6.958;2022-12-16T13:02:18;2.90;72.10
3678;DHT22;1855;50.934;6.958;2022-12-16T13:05:04;2.60;72.60
3678;DHT22;1855;50.934;6.958;2022-12-16T13:07:49;2.50;74.00
3678;DHT22;1855;50.934;6.958;2022-12-16T13:10:35;2.60;74.00
3678;DHT22;1855;50.934;6.958;2022-12-16T13:13:28;2.80;73.40
3678;DHT22;1855;50.934;6.958;2022-12-16T13:19:57;3.40;72.30
3678;DHT22;1855;50.934;6.958;2022-12-16T13:22:43;3.50;71.30
3678;DHT22;1855;50.934;6.958;2022-12-16T13:25:36;3.60;70.70
3678;DHT22;1855;50.934;6.958;2022-12-16T13:28:23;3.50;70.80
3678;DHT22;1855;50.934;6.958;2022-12-16T13:31:09;3.20;71.60
3678;DHT22;1855;50.934;6.958;2022-12-16T13:33:58;3.00;72.50
3678;DHT22;1855;50.934;6.958;2022-12-16T13:36:55;2.60;74.10
3678;DHT22;1855;50.934;6.958;2022-12-16T13:39:41;2.20;75.90
3678;DHT22;1855;50.934;6.958;2022-12-16T13:42:48;1.80;78.30
3678;DHT22;1855;50.934;6.958;2022-12-16T13:45:36;1.40;80.20
3678;DHT22;1855;50.934;6.958;2022-12-16T13:48:36;1.10;82.00
3678;DHT22;1855;50.934;6.958;2022-12-16T13:55:14;0.30;86.00
3678;DHT22;1855;50.934;6.958;2022-12-16T13:58:04;0.00;88.50
3678;DHT22;1855;50.934;6.958;2022-12-16T14:00:58;-0.30;90.80
3678;DHT22;1855;50.934;6.958;2022-12-16T14:03:47;-0.40;91.50
3678;DHT22;1855;50.934;6.958;2022-12-16T14:06:34;-0.50;91.60
3678;DHT22;1855;50.934;6.958;2022-12-16T14:09:29;-0.50;92.30
3678;DHT22;1855;50.934;6.958;2022-12-16T14:12:33;-0.60;92.80
3678;DHT22;1855;50.934;6.958;2022-12-16T14:15:26;-0.70;93.20
3678;DHT22;1855;50.934;6.958;2022-12-16T14:18:21;-0.80;93.60
3678;DHT22;1855;50.934;6.958;2022-12-16T14:21:11;-0.80;94.20
3678;DHT22;1855;50.934;6.958;2022-12-16T14:24:01;-0.90;94.50
3678;DHT22;1855;50.934;6.958;2022-12-16T14:26:48;-0.90;94.70
3678;DHT22;1855;50.934;6.958;2022-12-16T14:29:34;-0.90;94.80
3678;DHT22;1855;50.934;6.958;2022-12-16T14:32:23;-0.90;95.00
3678;DHT22;1855;50.934;6.958;2022-12-16T14:35:13;-1.00;95.00
3678;DHT22;1855;50.934;6.958;2022-12-16T14:37:57;-1.00;95.30
3678;DHT22;1855;50.934;6.958;2022-12-16T14:40:42;-1.10;95.80
3678;DHT22;1855;50.934;6.958;2022-12-16T14:43:33;-1.10;96.20
3678;DHT22;1855;50.934;6.958;2022-12-16T14:46:26;-1.20;96.40
3678;DHT22;1855;50.934;6.958;2022-12-16T14:49:21;-1.20;96.80
3678;DHT22;1855;50.934;6.958;2022-12-16T14:52:17;-1.20;97.00
3678;DHT22;1855;50.934;6.958;2022-12-16T14:55:14;-1.10;97.20
3678;DHT22;1855;50.934;6.958;2022-12-16T14:58:04;-1.10;97.40
3678;DHT22;1855;50.934;6.958;2022-12-16T15:00:49;-1.10;97.50
3678;DHT22;1855;50.934;6.958;2022-12-16T15:03:38;-1.10;97.50
3678;DHT22;1855;50.934;6.958;2022-12-16T15:06:25;-1.20;97.30
3678;DHT22;1855;50.934;6.958;2022-12-16T15:09:17;-1.30;97.60
3678;DHT22;1855;50.934;6.958;2022-12-16T15:12:03;-1.30;98.00
3678;DHT22;1855;50.934;6.958;2022-12-16T15:14:48;-1.30;98.20
3678;DHT22;1855;50.934;6.958;2022-12-16T15:17:42;-1.40;98.40
3678;DHT22;1855;50.934;6.958;2022-12-16T15:20:30;-1.30;98.70
3678;DHT22;1855;50.934;6.958;2022-12-16T15:23:20;-1.30;99.00
3678;DHT22;1855;50.934;6.958;2022-12-16T15:26:06;-1.30;99.00
3678;DHT22;1855;50.934;6.958;2022-12-16T15:28:51;-1.30;99.30
3678;DHT22;1855;50.934;6.958;2022-12-16T15:31:36;-1.30;99.50
3678;DHT22;1855;50.934;6.958;2022-12-16T15:34:27;-1.30;99.60
3678;DHT22;1855;50.934;6.958;2022-12-16T15:37:19;-1.20;99.40
3678;DHT22;1855;50.934;6.958;2022-12-16T15:40:13;-1.30;99.50
3678;DHT22;1855;50.934;6.958;2022-12-16T15:43:01;-1.30;99.50
3678;DHT22;1855;50.934;6.958;2022-12-16T15:45:47;-1.40;99.60
3678;DHT22;1855;50.934;6.958;2022-12-16T15:48:33;-1.30;99.80
3678;DHT22;1855;50.934;6.958;2022-12-16T15:51:20;-1.30;99.90
3678;DHT22;1855;50.934;6.958;2022-12-16T15:54:14;-1.30;99.90
3678;DHT22;1855;50.934;6.958;2022-12-16T15:56:59;-1.30;99.90
3678;DHT22;1855;50.934;6.958;2022-12-16T15:59:58;-1.30;99.90
3678;DHT22;1855;50.934;6.958;2022-12-16T16:02:46;-1.40;99.90
3678;DHT22;1855;50.934;6.958;2022-12-16T16:05:31;-1.40;99.90
3678;DHT22;1855;50.934;6.958;2022-12-16T16:08:16;-1.40;99.90
3678;DHT22;1855;50.934;6.958;2022-12-16T16:11:16;-1.40;99.90
3678;DHT22;1855;50.934;6.958;2022-12-16T16:14:01;-1.30;99.90
3678;DHT22;1855;50.934;6.958;2022-12-16T16:16:45;-1.20;99.90
3678;DHT22;1855;50.934;6.958;2022-12-16T16:19:30;-1.10;99.90
3678;DHT22;1855;50.934;6.958;2022-12-16T16:22:15;-1.00;99.90
3678;DHT22;1855;50.934;6.958;2022-12-16T16:25:02;-1.00;99.90
3678;DHT22;1855;50.934;6.958;2022-12-16T16:27:48;-0.90;99.90
3678;DHT22;1855;50.934;6.958;2022-12-16T16:30:32;-0.90;99.90
3678;DHT22;1855;50.934;6.958;2022-12-16T16:33:16;-0.80;99.90
3678;DHT22;1855;50.934;6.958;2022-12-16T16:36:00;-0.80;99.90
3678;DHT22;1855;50.934;6.958;2022-12-16T16:38:45;-0.80;99.90
3678;DHT22;1855;50.934;6.958;2022-12-16T16:41:28;-0.80;99.90
3678;DHT22;1855;50.934;6.958;2022-12-16T16:44:14;-0.90;99.90
3678;DHT22;1855;50.934;6.958;2022-12-16T16:46:58;-0.90;99.90
3678;DHT22;1855;50.934;6.958;2022-12-16T16:49:45;-0.90;99.90
3678;DHT22;1855;50.934;6.958;2022-12-16T16:52:30;-1.00;99.90
3678;DHT22;1855;50.934;6.958;2022-12-16T16:55:16;-1.00;99.90
3678;DHT22;1855;50.934;6.958;2022-12-16T16:58:04;-0.90;99.90
3678;DHT22;1855;50.934;6.958;2022-12-16T17:00:51;-1.00;99.90
3678;DHT22;1855;50.934;6.958;2022-12-16T17:03:35;-1.00;99.90
3678;DHT22;1855;50.934;6.958;2022-12-16T17:06:19;-1.10;99.90
3678;DHT22;1855;50.934;6.958;2022-12-16T17:09:06;-1.10;99.90
3678;DHT22;1855;50.934;6.958;2022-12-16T17:11:50;-1.10;99.90
3678;DHT22;1855;50.934;6.958;2022-12-16T17:14:34;-1.10;99.90
3678;DHT22;1855;50.934;6.958;2022-12-16T17:17:20;-1.10;99.90
3678;DHT22;1855;50.934;6.958;2022-12-16T17:20:05;-1.20;99.90
3678;DHT22;1855;50.934;6.958;2022-12-16T17:22:50;-1.20;99.90
3678;DHT22;1855;50.934;6.958;2022-12-16T17:25:34;-1.20;99.90
3678;DHT22;1855;50.934;6.958;2022-12-16T17:28:19;-1.20;99.90
3678;DHT22;1855;50.934;6.958;2022-12-16T17:31:03;-1.20;99.90
3678;DHT22;1855;50.934;6.958;2022-12-16T17:33:49;-1.10;99.90
3678;DHT22;1855;50.934;6.958;2022-12-16T17:36:33;-1.00;99.90
3678;DHT22;1855;50.934;6.958;2022-12-16T17:39:17;-1.00;99.90
3678;DHT22;1855;50.934;6.958;2022-12-16T17:42:01;-1.00;99.90
3678;DHT22;1855;50.934;6.958;2022-12-16T17:44:46;-1.00;99.90
3678;DHT22;1855;50.934;6.958;2022-12-16T17:47:30;-0.90;99.90
3678;DHT22;1855;50.934;6.958;2022-12-16T17:50:16;-0.90;99.90
3678;DHT22;1855;50.934;6.958;2022-12-16T17:53:00;-0.80;99.90
3678;DHT22;1855;50.934;6.958;2022-12-16T17:55:44;-0.90;99.90
3678;DHT22;1855;50.934;6.958;2022-12-16T17:58:29;-0.90;99.90
3678;DHT22;1855;50.934;6.958;2022-12-16T18:01:14;-0.80;99.90
3678;DHT22;1855;50.934;6.958;2022-12-16T18:03:58;-0.90;99.90